Time;durP1;ratioP1;P1;durP2;ratioP2;P2;SDS_P1;SDS_P2;PMS_P1;PMS_P2;Temp;Humidity;BMP_temperature;BMP_pressure;BME280_temperature;BME280_humidity;BME280_pressure;Samples;Min_cycle;Max_cycle;Signal;HPM_P1;HPM_P2
2021/09/09 00:01:38;;;;;;;;;;;;;;;-144.99;72.57;52203.50;5067715;28;19982;-74
2021/09/09 00:04:04;;;;;;;;;;;;;;;-144.99;72.76;52207.59;5068534;28;19979;-76
2021/09/09 00:06:31;;;;;;;;;;;;;;;-144.99;72.68;52203.50;5061973;28;19986;-75
2021/09/09 00:08:57;;;;;;;;;;;;;;;-144.99;72.86;52256.50;5066842;28;19978;-74
2021/09/09 00:11:23;;;;;;;;;;;;;;;-144.99;72.79;52227.97;5092634;28;20044;-75
2021/09/09 00:13:49;;;;;;;;;;;;;;;-144.99;72.83;52211.66;5083847;28;19977;-75
2021/09/09 00:16:16;;;;;;;;;;;;;;;-144.99;72.97;52225.94;5071511;28;20352;-77
2021/09/09 00:18:44;;;;;;;;;;;;;;;-144.99;73.02;52219.81;5068533;28;20140;-77
2021/09/09 00:21:10;;;;;;;;;;;;;;;-144.99;73.24;52227.97;5067607;28;19977;-76
2021/09/09 00:23:37;;;;;;;;;;;;;;;-144.99;73.07;52203.50;5069347;28;19944;-76
2021/09/09 00:26:04;;;;;;;;;;;;;;;-144.99;73.21;52227.97;5068983;28;19976;-76
2021/09/09 00:28:31;;;;;;;;;;;;;;;-144.99;73.15;52232.03;5069027;28;19981;-77
2021/09/09 00:30:57;;;;;;;;;;;;;;;-144.99;73.31;52256.50;5066918;28;20354;-76
2021/09/09 00:33:24;;;;;;;;;;;;;;;-144.99;73.60;52191.28;5069080;28;19962;-77
2021/09/09 00:35:51;;;;;;;;;;;;;;;-144.99;73.89;52223.88;5068651;28;20352;-77
2021/09/09 00:38:18;;;;;;;;;;;;;;;-144.99;73.79;52236.13;5068015;28;19952;-77
2021/09/09 00:40:44;;;;;;;;;;;;;;;-144.99;73.86;52191.28;5068360;28;19940;-78
2021/09/09 00:43:10;;;;;;;;;;;;;;;-144.99;74.14;52183.13;5069171;28;19955;-78
2021/09/09 00:45:37;;;;;;;;;;;;;;;-144.99;74.24;52227.97;5069048;28;19956;-77
2021/09/09 00:48:03;;;;;;;;;;;;;;;-144.99;74.44;52211.66;5060195;28;19964;-77
2021/09/09 00:50:30;;;;;;;;;;;;;;;-144.99;74.48;52244.28;5068213;28;19964;-76
2021/09/09 00:52:57;;;;;;;;;;;;;;;-144.99;74.38;52246.31;5066778;28;20417;-77
2021/09/09 00:55:24;;;;;;;;;;;;;;;-144.99;74.48;52227.97;5068822;28;19934;-77
2021/09/09 00:57:51;;;;;;;;;;;;;;;-144.99;74.79;52227.97;5069776;28;19950;-75
2021/09/09 01:00:17;;;;;;;;;;;;;;;-144.99;74.96;52223.88;5068623;28;19961;-78
2021/09/09 01:02:44;;;;;;;;;;;;;;;-144.99;74.82;52195.34;5068882;28;19954;-78
2021/09/09 01:05:10;;;;;;;;;;;;;;;-144.99;75.17;52250.38;5069479;28;19948;-77
2021/09/09 01:07:37;;;;;;;;;;;;;;;-144.99;75.14;52201.47;5066525;28;19959;-76
2021/09/09 01:10:05;;;;;;;;;;;;;;;-144.99;75.47;52234.09;5068705;28;19950;-77
2021/09/09 01:12:31;;;;;;;;;;;;;;;-144.99;75.36;52215.75;5068588;28;19950;-78
2021/09/09 01:14:58;;;;;;;;;;;;;;;-144.99;75.63;52195.34;5067995;28;19937;-78
2021/09/09 01:17:24;;;;;;;;;;;;;;;-144.99;75.62;52223.88;5067723;28;19962;-79
2021/09/09 01:19:50;;;;;;;;;;;;;;;-144.99;75.71;52205.53;5067683;28;19971;-79
2021/09/09 01:22:16;;;;;;;;;;;;;;;-144.99;75.67;52232.03;5066285;28;20327;-78
2021/09/09 01:24:44;;;;;;;;;;;;;;;-144.99;75.70;52203.50;5067001;28;20026;-77
2021/09/09 01:27:11;;;;;;;;;;;;;;;-144.99;75.87;52211.66;5068503;28;19975;-77
2021/09/09 01:29:38;;;;;;;;;;;;;;;-144.99;76.17;52240.19;5066867;28;19961;-78
2021/09/09 01:32:06;;;;;;;;;;;;;;;-144.99;76.39;52227.97;5067558;28;20281;-77
2021/09/09 01:34:33;;;;;;;;;;;;;;;-144.99;76.45;52183.13;5067156;28;20100;-77
2021/09/09 01:36:59;;;;;;;;;;;;;;;-144.99;76.84;52252.44;5067158;28;20001;-76
2021/09/09 01:39:26;;;;;;;;;;;;;;;-144.99;76.86;52211.66;5067240;28;19955;-76
2021/09/09 01:41:55;;;;;;;;;;;;;;;-144.99;77.01;52179.06;5069334;28;20432;-76
2021/09/09 01:44:22;;;;;;;;;;;;;;;-144.99;77.19;52248.34;5068792;28;20447;-79
2021/09/09 01:46:49;;;;;;;;;;;;;;;-144.99;77.35;52219.81;5066273;28;19954;-77
2021/09/09 01:49:16;;;;;;;;;;;;;;;-144.99;77.56;52219.81;5065868;28;19961;-77
2021/09/09 01:51:42;;;;;;;;;;;;;;;-144.99;77.72;52248.34;5065154;28;19960;-76
2021/09/09 01:54:09;;;;;;;;;;;;;;;-144.99;77.83;52205.53;5067211;28;19950;-77
2021/09/09 01:56:35;;;;;;;;;;;;;;;-144.99;77.68;52187.19;5068233;28;19958;-76
2021/09/09 01:59:03;;;;;;;;;;;;;;;-144.99;77.78;52232.03;5067313;28;19967;-74
2021/09/09 02:01:30;;;;;;;;;;;;;;;-144.99;78.25;52234.09;5071250;28;19967;-74
2021/09/09 02:03:56;;;;;;;;;;;;;;;-144.99;78.70;52238.16;5067505;28;19942;-75
2021/09/09 02:06:22;;;;;;;;;;;;;;;-144.99;78.56;52248.34;5069549;28;19952;-75
2021/09/09 02:08:49;;;;;;;;;;;;;;;-144.99;78.78;52248.34;5072800;28;19962;-75
2021/09/09 02:11:15;;;;;;;;;;;;;;;-144.99;78.84;52236.13;5095026;28;19975;-79
2021/09/09 02:13:41;;;;;;;;;;;;;;;-144.99;78.85;52219.81;5080867;28;19953;-76
2021/09/09 02:16:09;;;;;;;;;;;;;;;-144.99;79.40;52248.34;5077426;28;19952;-79
2021/09/09 02:18:36;;;;;;;;;;;;;;;-144.99;79.37;52244.28;5088990;28;19942;-79
2021/09/09 02:21:02;;;;;;;;;;;;;;;-144.99;79.81;52223.88;5072828;28;19966;-77
2021/09/09 02:23:29;;;;;;;;;;;;;;;-144.99;79.90;52236.13;5073607;28;20420;-78
2021/09/09 02:25:55;;;;;;;;;;;;;;;-144.99;80.35;52244.28;5073630;28;19957;-78
2021/09/09 02:28:21;;;;;;;;;;;;;;;-144.99;80.13;52264.66;5074228;28;19973;-78
2021/09/09 02:30:48;;;;;;;;;;;;;;;-144.99;80.43;52254.47;5072371;28;20402;-77
2021/09/09 02:33:15;;;;;;;;;;;;;;;-144.99;80.66;52246.31;5074555;28;19956;-77
2021/09/09 02:35:42;;;;;;;;;;;;;;;-144.99;80.90;52219.81;5071909;28;20418;-79
2021/09/09 02:38:09;;;;;;;;;;;;;;;-144.99;81.40;52223.88;5072574;28;19947;-79
2021/09/09 02:40:35;;;;;;;;;;;;;;;-144.99;81.47;52244.28;5072867;28;20076;-79
2021/09/09 02:43:01;;;;;;;;;;;;;;;-144.99;81.38;52215.75;5074427;28;19968;-78
2021/09/09 02:45:28;;;;;;;;;;;;;;;-144.99;81.76;52244.28;5073514;28;19972;-77
2021/09/09 02:47:54;;;;;;;;;;;;;;;-144.99;81.86;52223.88;5071048;28;19991;-77
2021/09/09 02:50:22;;;;;;;;;;;;;;;-144.99;82.41;52213.69;5073917;28;19971;-77
2021/09/09 02:52:48;;;;;;;;;;;;;;;-144.99;82.51;52232.03;5073306;28;19946;-77
2021/09/09 02:55:14;;;;;;;;;;;;;;;-144.99;82.21;52240.19;5073602;28;20192;-75
2021/09/09 02:57:41;;;;;;;;;;;;;;;-144.99;82.50;52260.56;5073230;28;20015;-76
2021/09/09 03:00:07;;;;;;;;;;;;;;;-144.99;82.89;52232.03;5071281;28;19957;-75
2021/09/09 03:02:34;;;;;;;;;;;;;;;-144.99;83.04;52256.50;5072040;28;19964;-76
2021/09/09 03:05:00;;;;;;;;;;;;;;;-144.99;83.06;52248.34;5068956;28;19947;-75
2021/09/09 03:07:28;;;;;;;;;;;;;;;-144.99;82.99;52219.81;5067878;28;19978;-76
2021/09/09 03:09:54;;;;;;;;;;;;;;;-144.99;83.14;52232.03;5067626;28;19965;-75
2021/09/09 03:12:20;;;;;;;;;;;;;;;-144.99;83.42;52252.44;5069170;28;19967;-74
2021/09/09 03:14:47;;;;;;;;;;;;;;;-144.99;82.97;52223.88;5069480;28;19954;-75
2021/09/09 03:17:13;;;;;;;;;;;;;;;-144.99;83.31;52232.03;5069525;28;19955;-74
2021/09/09 03:19:39;;;;;;;;;;;;;;;-144.99;83.46;52252.44;5068551;28;20012;-73
2021/09/09 03:22:05;;;;;;;;;;;;;;;-144.99;83.67;52252.44;5068628;28;20522;-73
2021/09/09 03:24:34;;;;;;;;;;;;;;;-144.99;83.68;52272.81;5068857;28;19979;-73
2021/09/09 03:27:00;;;;;;;;;;;;;;;-144.99;83.96;52215.75;5069373;28;20460;-73
2021/09/09 03:29:26;;;;;;;;;;;;;;;-144.99;83.84;52201.47;5068560;28;19994;-74
2021/09/09 03:31:53;;;;;;;;;;;;;;;-144.99;84.16;52205.53;5069082;28;20001;-75
2021/09/09 03:34:19;;;;;;;;;;;;;;;-144.99;83.85;52278.91;5069456;28;19977;-75
2021/09/09 03:36:45;;;;;;;;;;;;;;;-144.99;83.69;52236.13;5068314;28;19966;-75
2021/09/09 03:39:11;;;;;;;;;;;;;;;-144.99;83.87;52264.66;5067894;28;19978;-76
2021/09/09 03:41:39;;;;;;;;;;;;;;;-144.99;84.22;52219.81;5069418;28;19988;-77
2021/09/09 03:44:05;;;;;;;;;;;;;;;-144.99;84.47;52246.31;5070224;28;19978;-76
2021/09/09 03:46:32;;;;;;;;;;;;;;;-144.99;84.59;52248.34;5069683;28;20057;-76
2021/09/09 03:48:58;;;;;;;;;;;;;;;-144.99;84.73;52276.88;5070012;28;19985;-76
2021/09/09 03:51:24;;;;;;;;;;;;;;;-144.99;85.19;52232.03;5069331;28;20002;-77
2021/09/09 03:53:51;;;;;;;;;;;;;;;-144.99;84.85;52227.97;5070238;28;20361;-76
2021/09/09 03:56:17;;;;;;;;;;;;;;;-144.99;85.25;52217.78;5070408;28;19992;-76
2021/09/09 03:58:45;;;;;;;;;;;;;;;-144.99;85.56;52248.34;5068829;28;20829;-76
2021/09/09 04:01:11;;;;;;;;;;;;;;;-144.99;85.67;52260.56;5068581;28;19985;-76
2021/09/09 04:03:37;;;;;;;;;;;;;;;-144.99;85.54;52223.88;5067653;28;20502;-76
2021/09/09 04:06:03;;;;;;;;;;;;;;;-144.99;85.74;52242.22;5065061;28;19975;-75
2021/09/09 04:08:30;;;;;;;;;;;;;;;-144.99;85.86;52225.94;5068708;28;20007;-77
2021/09/09 04:10:56;;;;;;;;;;;;;;;-144.99;85.58;52236.13;5076556;28;19990;-79
2021/09/09 04:13:23;;;;;;;;;;;;;;;-144.99;85.73;52219.81;5087549;28;19970;-77
2021/09/09 04:15:50;;;;;;;;;;;;;;;-144.99;85.96;52230.00;5071300;28;19972;-76
2021/09/09 04:18:16;;;;;;;;;;;;;;;-144.99;85.99;52244.28;5068941;28;19971;-73
2021/09/09 04:20:43;;;;;;;;;;;;;;;-144.99;86.39;52232.03;5079498;28;19986;-69
2021/09/09 04:23:09;;;;;;;;;;;;;;;-144.99;86.75;52264.66;5067921;28;19974;-69
2021/09/09 04:25:35;;;;;;;;;;;;;;;-144.99;86.88;52240.19;5067647;28;19969;-69
2021/09/09 04:28:02;;;;;;;;;;;;;;;-144.99;86.94;52215.75;5067195;28;19964;-68
2021/09/09 04:30:28;;;;;;;;;;;;;;;-144.99;87.03;52252.44;5066072;28;20001;-69
2021/09/09 04:32:55;;;;;;;;;;;;;;;-144.99;86.86;52240.19;5066995;28;19993;-69
2021/09/09 04:35:22;;;;;;;;;;;;;;;-144.99;87.12;52232.03;5067740;28;19956;-69
2021/09/09 04:37:48;;;;;;;;;;;;;;;-144.99;87.14;52268.72;5065098;28;19970;-67
2021/09/09 04:40:14;;;;;;;;;;;;;;;-144.99;87.16;52207.59;5065947;28;19994;-68
2021/09/09 04:42:41;;;;;;;;;;;;;;;-144.99;87.22;52240.19;5066791;28;20008;-69
2021/09/09 04:45:08;;;;;;;;;;;;;;;-144.99;87.33;52252.44;5067541;28;19974;-69
2021/09/09 04:47:36;;;;;;;;;;;;;;;-144.99;87.23;52252.44;5063134;28;19973;-68
2021/09/09 04:50:04;;;;;;;;;;;;;;;-144.99;87.37;52234.09;5065943;28;19985;-69
2021/09/09 04:52:30;;;;;;;;;;;;;;;-144.99;87.48;52244.28;5064908;28;20002;-69
2021/09/09 04:54:56;;;;;;;;;;;;;;;-144.99;88.07;52240.19;5066146;28;19970;-69
2021/09/09 04:57:23;;;;;;;;;;;;;;;-144.99;87.92;52248.34;5066479;28;20024;-69
2021/09/09 04:59:49;;;;;;;;;;;;;;;-144.99;88.07;52211.66;5066075;28;19977;-77
2021/09/09 05:02:15;;;;;;;;;;;;;;;-144.99;87.93;52227.97;5067041;28;20372;-71
2021/09/09 05:04:41;;;;;;;;;;;;;;;-144.99;87.39;52232.03;5066862;28;19974;-72
2021/09/09 05:07:09;;;;;;;;;;;;;;;-144.99;87.16;52223.88;5059802;28;19970;-73
2021/09/09 05:09:35;;;;;;;;;;;;;;;-144.99;86.93;52211.66;5065538;28;19983;-73
2021/09/09 05:12:05;;;;;;;;;;;;;;;-144.99;86.45;52217.78;4102689;28;10000753;-73
2021/09/09 05:14:31;;;;;;;;;;;;;;;-144.99;86.36;52232.03;5063616;28;19981;-73
2021/09/09 05:16:57;;;;;;;;;;;;;;;-144.99;86.00;52213.69;5063511;28;20482;-73
2021/09/09 05:19:23;;;;;;;;;;;;;;;-144.99;85.95;52244.28;5062256;28;19985;-73
2021/09/09 05:21:50;;;;;;;;;;;;;;;-144.99;85.89;52236.13;5063112;28;19997;-72
2021/09/09 05:24:17;;;;;;;;;;;;;;;-144.99;85.54;52211.66;5063178;28;19980;-74
2021/09/09 05:26:44;;;;;;;;;;;;;;;-144.99;85.39;52215.75;5063977;28;20088;-73
2021/09/09 05:29:10;;;;;;;;;;;;;;;-144.99;85.03;52227.97;5063773;28;19989;-77
2021/09/09 05:31:36;;;;;;;;;;;;;;;-144.99;84.76;52219.81;5091609;22;19998;-74
2021/09/09 05:34:03;;;;;;;;;;;;;;;-144.99;84.58;52201.47;5068390;28;19978;-78
2021/09/09 05:36:29;;;;;;;;;;;;;;;-144.99;84.21;52219.81;5073617;28;19973;-76
2021/09/09 05:38:55;;;;;;;;;;;;;;;-144.99;83.82;52193.31;5081554;28;19953;-78
2021/09/09 05:41:23;;;;;;;;;;;;;;;-144.99;83.83;52240.19;5082948;28;19970;-79
2021/09/09 05:43:49;;;;;;;;;;;;;;;-144.99;83.78;52252.44;5062821;28;20034;-77
2021/09/09 05:46:15;;;;;;;;;;;;;;;-144.99;83.50;52195.34;5059796;28;20563;-76
2021/09/09 05:48:42;;;;;;;;;;;;;;;-144.99;83.31;52215.75;5061853;28;19976;-78
2021/09/09 05:51:08;;;;;;;;;;;;;;;-144.99;83.13;52248.34;5062756;28;20501;-75
2021/09/09 05:53:34;;;;;;;;;;;;;;;-144.99;82.79;52187.19;5064657;28;19979;-78
2021/09/09 05:56:01;;;;;;;;;;;;;;;-144.99;82.49;52217.78;5063708;28;19989;-77
2021/09/09 05:58:28;;;;;;;;;;;;;;;-144.99;82.26;52219.81;5062424;28;19978;-77
2021/09/09 06:00:55;;;;;;;;;;;;;;;-144.99;81.84;52181.09;5060391;28;19971;-76
2021/09/09 06:03:25;;;;;;;;;;;;;;;-144.99;81.90;52221.84;5061876;28;19990;-77
2021/09/09 06:05:52;;;;;;;;;;;;;;;-144.99;81.49;52195.34;5058570;28;20333;-77
2021/09/09 06:08:19;;;;;;;;;;;;;;;-144.99;80.77;52195.34;5060386;28;19974;-78
2021/09/09 06:10:45;;;;;;;;;;;;;;;-144.99;80.66;52215.75;5061958;28;19995;-76
2021/09/09 06:13:11;;;;;;;;;;;;;;;-144.99;80.27;52223.88;5060756;28;20323;-77
2021/09/09 06:15:39;;;;;;;;;;;;;;;-144.99;80.08;52207.59;5053870;28;20532;-76
2021/09/09 06:18:05;;;;;;;;;;;;;;;-144.99;79.78;52232.03;5060946;28;19955;-77
2021/09/09 06:20:32;;;;;;;;;;;;;;;-144.99;79.32;52174.97;5060929;28;19932;-80
2021/09/09 06:22:58;;;;;;;;;;;;;;;-144.99;79.40;52211.66;5060864;28;20505;-74
2021/09/09 06:25:24;;;;;;;;;;;;;;;-144.99;78.92;52166.81;5062612;28;19978;-78
2021/09/09 06:27:51;;;;;;;;;;;;;;;-144.99;78.86;52203.50;5061861;28;19975;-77
2021/09/09 06:30:17;;;;;;;;;;;;;;;-144.99;78.50;52174.97;5060626;28;20006;-76
2021/09/09 06:32:45;;;;;;;;;;;;;;;-144.99;78.03;52199.44;5061656;28;20100;-76
2021/09/09 06:35:11;;;;;;;;;;;;;;;-144.99;77.47;52179.06;5058853;28;20045;-77
2021/09/09 06:37:38;;;;;;;;;;;;;;;-144.99;77.25;52252.44;5059893;28;20018;-77
2021/09/09 06:40:05;;;;;;;;;;;;;;;-144.99;76.47;52207.59;5061395;28;20161;-77
2021/09/09 06:42:32;;;;;;;;;;;;;;;-144.99;75.92;52154.59;5064094;28;20327;-77
2021/09/09 06:44:58;;;;;;;;;;;;;;;-144.99;75.71;52154.59;5064303;28;19976;-77
2021/09/09 06:47:24;;;;;;;;;;;;;;;-144.99;75.40;52179.06;5061847;28;19998;-76
2021/09/09 06:49:52;;;;;;;;;;;;;;;-144.99;74.81;52195.34;5065469;28;19990;-78
2021/09/09 06:52:18;;;;;;;;;;;;;;;-144.99;74.34;52166.81;5064008;28;20701;-78
2021/09/09 06:54:45;;;;;;;;;;;;;;;-144.99;74.00;52201.47;5065864;28;20432;-77
2021/09/09 06:57:11;;;;;;;;;;;;;;;-144.99;73.48;52166.81;5066410;28;19986;-77
2021/09/09 06:59:37;;;;;;;;;;;;;;;-144.99;72.79;52199.44;5055467;28;19986;-78
2021/09/09 07:02:04;;;;;;;;;;;;;;;-144.99;73.07;52191.28;5069388;28;20389;-78
2021/09/09 07:04:30;;;;;;;;;;;;;;;-144.99;72.57;52174.97;5065546;28;19976;-77
2021/09/09 07:06:58;;;;;;;;;;;;;;;-144.99;71.66;52183.13;5064618;28;19983;-78
2021/09/09 07:09:24;;;;;;;;;;;;;;;-144.99;71.72;52138.28;5066713;28;20329;-76
2021/09/09 07:11:51;;;;;;;;;;;;;;;-144.99;71.14;52117.91;5071003;28;19997;-78
2021/09/09 07:14:17;;;;;;;;;;;;;;;-144.99;70.78;52166.81;5068132;28;20152;-77
2021/09/09 07:16:43;;;;;;;;;;;;;;;-144.99;70.69;52172.94;5068584;28;20578;-78
2021/09/09 07:19:09;;;;;;;;;;;;;;;-144.99;69.48;52179.06;5066223;28;19974;-78
2021/09/09 07:21:36;;;;;;;;;;;;;;;-144.99;69.53;52142.38;5068046;28;20331;-78
2021/09/09 07:24:04;;;;;;;;;;;;;;;-144.99;68.96;52158.66;5074567;28;19963;-74
2021/09/09 07:26:31;;;;;;;;;;;;;;;-144.99;68.68;52146.44;5070544;28;20418;-79
2021/09/09 07:28:57;;;;;;;;;;;;;;;-144.99;68.36;52166.81;5071488;28;20172;-79
2021/09/09 07:31:24;;;;;;;;;;;;;;;-144.99;67.52;52150.53;5068641;28;19978;-75
2021/09/09 07:33:50;;;;;;;;;;;;;;;-144.99;67.32;52113.84;5067390;28;19996;-76
2021/09/09 07:36:16;;;;;;;;;;;;;;;-144.99;67.09;52142.38;5064690;28;20434;-77
2021/09/09 07:38:42;;;;;;;;;;;;;;;-144.99;67.95;52174.97;5067932;28;19962;-76
2021/09/09 07:41:10;;;;;;;;;;;;;;;-144.99;67.05;52146.44;5068065;28;20358;-76
2021/09/09 07:43:38;;;;;;;;;;;;;;;-144.99;67.17;52166.81;5067630;28;19981;-77
2021/09/09 07:46:05;;;;;;;;;;;;;;;-144.99;66.38;52166.81;5066508;28;20185;-75
2021/09/09 07:48:31;;;;;;;;;;;;;;;-144.99;66.04;52101.59;5066058;28;19963;-78
2021/09/09 07:50:57;;;;;;;;;;;;;;;-144.99;65.31;52146.44;5064435;28;20389;-77
2021/09/09 07:53:24;;;;;;;;;;;;;;;-144.99;65.19;52126.06;5063773;28;19999;-77
2021/09/09 07:55:50;;;;;;;;;;;;;;;-144.99;64.71;52154.59;5058636;28;19974;-77
2021/09/09 07:58:18;;;;;;;;;;;;;;;-144.99;64.32;52134.22;5063982;28;20398;-75
2021/09/09 08:00:44;;;;;;;;;;;;;;;-144.99;63.67;52134.22;5066791;28;20444;-76
2021/09/09 08:03:10;;;;;;;;;;;;;;;-144.99;63.11;52136.25;5068039;28;20000;-77
2021/09/09 08:05:37;;;;;;;;;;;;;;;-144.99;62.02;52154.59;5068916;28;19970;-77
2021/09/09 08:08:03;;;;;;;;;;;;;;;-144.99;61.40;52130.13;5067039;28;20389;-77
2021/09/09 08:10:29;;;;;;;;;;;;;;;-144.99;60.95;52101.59;5064446;28;20423;-77
2021/09/09 08:12:56;;;;;;;;;;;;;;;-144.99;60.77;52105.69;5064640;28;19991;-78
2021/09/09 08:15:23;;;;;;;;;;;;;;;-144.99;60.99;52117.91;5064341;28;19972;-78
2021/09/09 08:17:50;;;;;;;;;;;;;;;-144.99;60.64;52162.75;5064366;28;19988;-78
2021/09/09 08:20:16;;;;;;;;;;;;;;;-144.99;59.82;52105.69;5064902;28;19974;-79
2021/09/09 08:22:43;;;;;;;;;;;;;;;-144.99;58.67;52099.56;5066724;28;19957;-76
2021/09/09 08:25:10;;;;;;;;;;;;;;;-144.99;58.26;52101.59;5064223;28;20384;-76
2021/09/09 08:27:36;;;;;;;;;;;;;;;-144.99;58.09;52085.31;5063677;28;19956;-77
2021/09/09 08:30:04;;;;;;;;;;;;;;;-144.99;57.87;52099.56;5061281;28;19978;-77
2021/09/09 08:32:32;;;;;;;;;;;;;;;-144.99;58.01;52093.44;5062783;28;19990;-79
2021/09/09 08:34:58;;;;;;;;;;;;;;;-144.99;57.87;52105.69;5064602;28;20021;-79
2021/09/09 08:37:25;;;;;;;;;;;;;;;-144.99;57.15;52093.44;5062322;28;19989;-78
2021/09/09 08:39:52;;;;;;;;;;;;;;;-144.99;57.12;52081.22;5061838;28;20343;-76
2021/09/09 08:42:18;;;;;;;;;;;;;;;-144.99;56.47;52128.09;5066491;28;19986;-77
2021/09/09 08:44:45;;;;;;;;;;;;;;;-144.99;55.81;52107.72;5063545;28;20410;-77
2021/09/09 08:47:12;;;;;;;;;;;;;;;-144.99;54.00;52093.44;5061578;28;20149;-74
2021/09/09 08:49:39;;;;;;;;;;;;;;;-144.99;54.11;52089.38;5058824;28;19963;-77
2021/09/09 08:52:06;;;;;;;;;;;;;;;-144.99;53.82;52081.22;5068633;28;19957;-76
2021/09/09 08:54:32;;;;;;;;;;;;;;;-144.99;53.44;52089.38;5069910;28;19947;-77
2021/09/09 08:56:59;;;;;;;;;;;;;;;-144.99;52.39;52091.41;5066126;28;19959;-77
2021/09/09 08:59:25;;;;;;;;;;;;;;;-144.99;51.84;52085.31;5061694;28;19932;-79
2021/09/09 09:01:59;;;;;;;;;;;;;;;-144.99;50.78;52040.47;5063768;28;19924;-78
2021/09/09 09:04:25;;;;;;;;;;;;;;;-144.99;50.27;52032.31;5062722;28;19957;-78
2021/09/09 09:06:53;;;;;;;;;;;;;;;-144.99;49.87;52062.88;5061925;28;19939;-78
2021/09/09 09:09:23;;;;;;;;;;;;;;;-144.99;49.12;52069.00;5062507;28;20466;-78
2021/09/09 09:11:49;;;;;;;;;;;;;;;-144.99;49.04;52048.63;5063410;28;19951;-76
2021/09/09 09:14:18;;;;;;;;;;;;;;;-144.99;48.83;52052.69;5062714;28;19963;-75
2021/09/09 09:16:45;;;;;;;;;;;;;;;-144.99;48.22;52081.22;5064732;28;19928;-79
2021/09/09 09:19:12;;;;;;;;;;;;;;;-144.99;47.86;52075.09;5064830;28;20363;-76
2021/09/09 09:21:41;;;;;;;;;;;;;;;-144.99;47.69;52056.78;5054972;28;19943;-77
2021/09/09 09:24:09;;;;;;;;;;;;;;;-144.99;47.09;52064.91;5062827;28;20348;-75
2021/09/09 09:26:36;;;;;;;;;;;;;;;-144.99;46.51;52020.09;5063547;28;20421;-78
2021/09/09 09:29:02;;;;;;;;;;;;;;;-144.99;45.86;52028.22;5062982;28;20015;-76
2021/09/09 09:31:29;;;;;;;;;;;;;;;-144.99;46.04;52034.34;5064380;28;20267;-77
2021/09/09 09:33:56;;;;;;;;;;;;;;;-144.99;45.22;51995.63;5065685;28;19929;-78
2021/09/09 09:36:24;;;;;;;;;;;;;;;-144.99;44.70;51999.69;5053835;28;19931;-77
2021/09/09 09:38:52;;;;;;;;;;;;;;;-144.99;43.92;51985.44;5063886;28;19920;-79
2021/09/09 09:41:21;;;;;;;;;;;;;;;-144.99;43.95;51993.59;5068684;28;19931;-76
2021/09/09 09:43:59;;;;;;;;;;;;;;;-144.99;43.71;52011.94;5066364;28;20244;-76
2021/09/09 09:46:29;;;;;;;;;;;;;;;-144.99;42.45;52030.28;5064196;28;19956;-77
2021/09/09 09:48:56;;;;;;;;;;;;;;;-144.99;41.75;51989.50;5064690;28;20323;-74
2021/09/09 09:51:41;;;;;;;;;;;;;;;-144.99;41.73;51991.56;5066246;28;19924;-78
2021/09/09 09:54:08;;;;;;;;;;;;;;;-144.99;41.94;52020.09;5065327;28;19924;-76
2021/09/09 09:56:36;;;;;;;;;;;;;;;-144.99;41.51;51950.78;5063992;28;20138;-76
2021/09/09 09:59:03;;;;;;;;;;;;;;;-144.99;41.54;51977.28;5062748;28;20243;-75
2021/09/09 10:01:30;;;;;;;;;;;;;;;-144.99;40.94;51985.44;5064316;28;19935;-76
2021/09/09 10:03:57;;;;;;;;;;;;;;;-144.99;40.30;51958.94;5064187;28;20031;-79
2021/09/09 10:06:24;;;;;;;;;;;;;;;-144.99;39.94;51971.16;5059467;28;19928;-76
2021/09/09 10:08:50;;;;;;;;;;;;;;;-144.99;39.14;51967.09;5062539;28;19924;-76
2021/09/09 10:11:17;;;;;;;;;;;;;;;-144.99;38.82;51920.22;5062488;28;19997;-76
2021/09/09 10:13:44;;;;;;;;;;;;;;;-144.99;38.82;51958.94;5063572;28;20378;-76
2021/09/09 10:16:11;;;;;;;;;;;;;;;-144.99;38.66;51942.63;5061387;28;19924;-77
2021/09/09 10:18:38;;;;;;;;;;;;;;;-144.99;37.17;51930.41;5062379;28;19924;-77
2021/09/09 10:21:04;;;;;;;;;;;;;;;-144.99;37.30;51967.09;5064092;28;20413;-77
2021/09/09 10:23:30;;;;;;;;;;;;;;;-144.99;36.90;51938.56;5068617;28;19928;-78
2021/09/09 10:25:58;;;;;;;;;;;;;;;-144.99;36.58;51944.69;5067332;28;19924;-78
2021/09/09 10:28:45;;;;;;;;;;;;;;;-144.99;36.47;51954.88;5066162;28;19931;-78
2021/09/09 10:31:12;;;;;;;;;;;;;;;-144.99;35.72;51922.25;5063882;28;19920;-77
2021/09/09 10:33:41;;;;;;;;;;;;;;;-144.99;35.74;51901.88;5068042;28;19932;-77
2021/09/09 10:36:23;;;;;;;;;;;;;;;-144.99;34.98;51891.69;5069514;28;20024;-73
2021/09/09 10:38:49;;;;;;;;;;;;;;;-144.99;34.99;51861.13;5065372;28;19924;-75
2021/09/09 10:41:27;;;;;;;;;;;;;;;-144.99;35.19;51877.44;5066573;28;19951;-76
2021/09/09 10:43:57;;;;;;;;;;;;;;;-144.99;34.89;51816.28;5067816;28;19924;-74
2021/09/09 10:46:29;;;;;;;;;;;;;;;-144.99;34.43;51852.97;5066247;28;20435;-75
2021/09/09 10:49:05;;;;;;;;;;;;;;;-144.99;34.55;51848.91;5065371;28;19924;-75
2021/09/09 10:51:32;;;;;;;;;;;;;;;-144.99;34.06;51816.28;5065034;28;20388;-78
2021/09/09 10:53:59;;;;;;;;;;;;;;;-144.99;33.96;51834.63;5065663;28;19968;-75
2021/09/09 10:56:26;;;;;;;;;;;;;;;-144.99;33.95;51812.22;5065696;28;19924;-76
2021/09/09 10:59:11;;;;;;;;;;;;;;;-144.99;34.28;51795.91;5064523;28;20357;-74
2021/09/09 11:01:41;;;;;;;;;;;;;;;-144.99;33.51;51779.59;5063868;28;19935;-74
2021/09/09 11:04:07;;;;;;;;;;;;;;;-144.99;33.18;51755.16;5065508;28;19932;-78
2021/09/09 11:06:34;;;;;;;;;;;;;;;-144.99;32.72;51734.78;5060738;28;19924;-74
2021/09/09 11:09:12;;;;;;;;;;;;;;;-144.99;32.75;51779.59;5063950;28;19936;-77
2021/09/09 11:11:39;;;;;;;;;;;;;;;-144.99;32.55;51777.56;5062782;28;20390;-76
2021/09/09 11:14:08;;;;;;;;;;;;;;;-144.99;32.69;51799.97;5064850;28;20358;-76
2021/09/09 11:16:35;;;;;;;;;;;;;;;-144.99;32.25;51771.44;5063504;28;20003;-74
2021/09/09 11:19:03;;;;;;;;;;;;;;;-144.99;32.13;51747.00;5064563;28;20317;-75
2021/09/09 11:21:32;;;;;;;;;;;;;;;-144.99;31.91;51730.69;5063010;28;19968;-73
2021/09/09 11:23:59;;;;;;;;;;;;;;;-144.99;31.85;51706.25;5062968;28;19947;-73
2021/09/09 11:26:26;;;;;;;;;;;;;;;-144.99;31.91;51698.09;5064031;28;19947;-75
2021/09/09 11:28:53;;;;;;;;;;;;;;;-144.99;31.67;51759.22;5064013;28;20398;-77
2021/09/09 11:31:22;;;;;;;;;;;;;;;-144.99;31.94;51757.19;5063152;28;19927;-75
2021/09/09 11:33:49;;;;;;;;;;;;;;;-144.99;31.82;51726.63;5085512;22;19934;-75
2021/09/09 11:36:17;;;;;;;;;;;;;;;-144.99;31.66;51747.00;5075150;28;19920;-74
2021/09/09 11:38:43;;;;;;;;;;;;;;;-144.99;31.82;51730.69;5085837;28;19925;-75
2021/09/09 11:41:10;;;;;;;;;;;;;;;-144.99;31.40;51767.38;5089817;28;19962;-72
2021/09/09 11:43:37;;;;;;;;;;;;;;;-144.99;31.70;51732.72;5089450;28;19935;-77
2021/09/09 11:46:04;;;;;;;;;;;;;;;-144.99;31.87;51771.44;5090546;28;19930;-76
2021/09/09 11:48:33;;;;;;;;;;;;;;;-144.99;31.43;51747.00;5085011;28;20362;-76
2021/09/09 11:51:00;;;;;;;;;;;;;;;-144.99;31.16;51747.00;5087963;28;19936;-78
2021/09/09 11:53:27;;;;;;;;;;;;;;;-144.99;31.58;51702.16;5091457;28;19915;-77
2021/09/09 11:55:54;;;;;;;;;;;;;;;-144.99;31.72;51716.44;5094174;28;19926;-79
2021/09/09 11:58:34;;;;;;;;;;;;;;;-144.99;31.76;51722.53;5098756;28;19908;-77
2021/09/09 12:01:00;;;;;;;;;;;;;;;-144.99;32.40;51775.53;5100462;28;19908;-79
2021/09/09 12:03:27;;;;;;;;;;;;;;;-144.99;32.19;51732.72;5101249;28;19916;-79
2021/09/09 12:05:53;;;;;;;;;;;;;;;-144.99;31.69;51742.91;5094587;28;19919;-78
2021/09/09 12:08:20;;;;;;;;;;;;;;;-144.99;31.50;51734.78;5091401;28;19928;-78
2021/09/09 12:10:48;;;;;;;;;;;;;;;-144.99;30.93;51702.16;5097434;28;19917;-78
2021/09/09 12:13:28;;;;;;;;;;;;;;;-144.99;31.52;51724.59;5094811;28;19919;-78
2021/09/09 12:15:55;;;;;;;;;;;;;;;-144.99;31.13;51759.22;5103104;28;20381;-80
2021/09/09 12:18:30;;;;;;;;;;;;;;;-144.99;31.63;51755.16;5099933;28;19924;-79
2021/09/09 12:21:06;;;;;;;;;;;;;;;-144.99;31.45;51740.88;5099000;28;19918;-78
2021/09/09 12:23:33;;;;;;;;;;;;;;;-144.99;31.69;51694.00;5097967;28;20012;-79
2021/09/09 12:26:13;;;;;;;;;;;;;;;-144.99;31.92;51767.38;5105850;28;19929;-79